BAW9272 EGCC-EGLL
Flight info
| Callsign | BAW9272 |
|---|---|
| Flight time | N/A |
| Altitude | 19000 |
| Route | LISTO L612 HON |
| Aircraft | A20N/M-SDE2E3FGHIRWXY/LB1 |
Departure
| Time | 2026-05-05 18:50 |
|---|---|
| Airport | Manchester Airport (EGCC) |
Arrival
| Time | N/A |
|---|---|
| Airport | London Heathrow Airport (EGLL) |
| Time | Latitude | Longitude | Altitude | Speed | Heading |
|---|---|---|---|---|---|
| 2026-05-05 18:27 | 53.36892 | -2.28795 | 242 ft | 0 kts | 137° |
| 2026-05-05 18:33 | 53.36901 | -2.28808 | 242 ft | 2 kts | 149° |
| 2026-05-05 18:34 | 53.36916 | -2.28821 | 242 ft | 2 kts | 166° |
| 2026-05-05 18:34 | 53.36932 | -2.28822 | 242 ft | 2 kts | 199° |
| 2026-05-05 18:34 | 53.36946 | -2.28808 | 242 ft | 2 kts | 223° |
| 2026-05-05 18:34 | 53.36951 | -2.28800 | 243 ft | 0 kts | 227° |
| 2026-05-05 18:38 | 53.36951 | -2.28801 | 243 ft | 1 kts | 227° |
| 2026-05-05 18:38 | 53.36920 | -2.28853 | 242 ft | 8 kts | 224° |
| 2026-05-05 18:39 | 53.36881 | -2.28917 | 242 ft | 8 kts | 223° |
| 2026-05-05 18:39 | 53.36842 | -2.28983 | 241 ft | 8 kts | 227° |
| 2026-05-05 18:39 | 53.36796 | -2.29027 | 240 ft | 8 kts | 200° |
| 2026-05-05 18:39 | 53.36748 | -2.29038 | 240 ft | 6 kts | 155° |
| 2026-05-05 18:40 | 53.36717 | -2.28995 | 240 ft | 5 kts | 134° |
| 2026-05-05 18:40 | 53.36695 | -2.28956 | 240 ft | 4 kts | 134° |
| 2026-05-05 18:40 | 53.36660 | -2.28906 | 240 ft | 9 kts | 155° |
| 2026-05-05 18:40 | 53.36596 | -2.28826 | 240 ft | 14 kts | 123° |
| 2026-05-05 18:41 | 53.36549 | -2.28659 | 241 ft | 18 kts | 135° |
| 2026-05-05 18:41 | 53.36450 | -2.28496 | 241 ft | 22 kts | 135° |
| 2026-05-05 18:41 | 53.36341 | -2.28312 | 241 ft | 20 kts | 135° |
| 2026-05-05 18:41 | 53.36265 | -2.28183 | 241 ft | 7 kts | 136° |
| 2026-05-05 18:42 | 53.36249 | -2.28155 | 241 ft | 0 kts | 134° |
| 2026-05-05 18:42 | 53.36248 | -2.28155 | 241 ft | 1 kts | 134° |
| 2026-05-05 18:42 | 53.36213 | -2.28094 | 241 ft | 12 kts | 135° |
| 2026-05-05 18:42 | 53.36143 | -2.27974 | 242 ft | 17 kts | 135° |
| 2026-05-05 18:43 | 53.36049 | -2.27837 | 242 ft | 19 kts | 162° |
| 2026-05-05 18:43 | 53.35935 | -2.27845 | 241 ft | 18 kts | 182° |
| 2026-05-05 18:43 | 53.35809 | -2.27864 | 240 ft | 17 kts | 186° |
| 2026-05-05 18:43 | 53.35706 | -2.27881 | 239 ft | 14 kts | 186° |
| 2026-05-05 18:44 | 53.35612 | -2.27897 | 238 ft | 14 kts | 186° |
| 2026-05-05 18:44 | 53.35519 | -2.27914 | 237 ft | 13 kts | 186° |
| 2026-05-05 18:44 | 53.35437 | -2.27956 | 240 ft | 12 kts | 221° |
| 2026-05-05 18:44 | 53.35385 | -2.28040 | 238 ft | 0 kts | 225° |
| 2026-05-05 18:45 | 53.35379 | -2.28049 | 236 ft | 2 kts | 225° |
| 2026-05-05 18:45 | 53.35359 | -2.28080 | 236 ft | 5 kts | 222° |
| 2026-05-05 18:45 | 53.35316 | -2.28147 | 233 ft | 12 kts | 223° |
| 2026-05-05 18:46 | 53.35243 | -2.28278 | 231 ft | 19 kts | 231° |
| 2026-05-05 18:46 | 53.35151 | -2.28469 | 229 ft | 19 kts | 231° |
| 2026-05-05 18:46 | 53.35077 | -2.28624 | 227 ft | 0 kts | 232° |
| 2026-05-05 18:46 | 53.35074 | -2.28629 | 227 ft | 1 kts | 232° |
| 2026-05-05 18:47 | 53.35048 | -2.28682 | 226 ft | 9 kts | 229° |
| 2026-05-05 18:47 | 53.35004 | -2.28765 | 225 ft | 10 kts | 227° |
| 2026-05-05 18:47 | 53.34956 | -2.28847 | 224 ft | 10 kts | 225° |
| 2026-05-05 18:47 | 53.34904 | -2.28935 | 223 ft | 12 kts | 226° |
| 2026-05-05 18:48 | 53.34832 | -2.29047 | 221 ft | 17 kts | 211° |
| 2026-05-05 18:48 | 53.34709 | -2.29047 | 222 ft | 19 kts | 145° |
| 2026-05-05 18:48 | 53.34678 | -2.28927 | 226 ft | 0 kts | 56° |
| 2026-05-05 18:49 | 53.34688 | -2.28902 | 223 ft | 12 kts | 57° |
| 2026-05-05 18:49 | 53.34893 | -2.28476 | 228 ft | 89 kts | 53° |
| 2026-05-05 18:49 | 53.35420 | -2.27375 | 268 ft | 147 kts | 52° |
| 2026-05-05 18:50 | 53.36085 | -2.25951 | 809 ft | 161 kts | 52° |
| 2026-05-05 18:50 | 53.36794 | -2.24431 | 1583 ft | 168 kts | 51° |
| 2026-05-05 18:50 | 53.37498 | -2.22866 | 2452 ft | 171 kts | 58° |
| 2026-05-05 18:50 | 53.37688 | -2.20872 | 2982 ft | 187 kts | 103° |
| 2026-05-05 18:51 | 53.36949 | -2.18982 | 3546 ft | 207 kts | 140° |
| 2026-05-05 18:51 | 53.35682 | -2.17672 | 4150 ft | 223 kts | 148° |
| 2026-05-05 18:51 | 53.34167 | -2.16788 | 4764 ft | 242 kts | 175° |
| 2026-05-05 18:51 | 53.32379 | -2.16930 | 4974 ft | 269 kts | 185° |
| 2026-05-05 18:52 | 53.30509 | -2.17242 | 5013 ft | 270 kts | 185° |
| 2026-05-05 18:52 | 53.28639 | -2.17572 | 5012 ft | 270 kts | 185° |
| 2026-05-05 18:52 | 53.26771 | -2.17898 | 5010 ft | 270 kts | 185° |
| 2026-05-05 18:52 | 53.24897 | -2.18220 | 5004 ft | 271 kts | 185° |
| 2026-05-05 18:53 | 53.23021 | -2.18532 | 5007 ft | 271 kts | 184° |
| 2026-05-05 18:53 | 53.21143 | -2.18834 | 5002 ft | 271 kts | 184° |
| 2026-05-05 18:53 | 53.19265 | -2.19131 | 5003 ft | 271 kts | 184° |
| 2026-05-05 18:53 | 53.17385 | -2.19423 | 5000 ft | 272 kts | 184° |
| 2026-05-05 18:54 | 53.15501 | -2.19673 | 5000 ft | 271 kts | 179° |
| 2026-05-05 18:54 | 53.13641 | -2.19303 | 5037 ft | 268 kts | 163° |
| 2026-05-05 18:54 | 53.11902 | -2.18203 | 5590 ft | 269 kts | 155° |
| 2026-05-05 18:54 | 53.10169 | -2.16982 | 6570 ft | 272 kts | 156° |
| 2026-05-05 18:55 | 53.08406 | -2.15764 | 7460 ft | 277 kts | 157° |
| 2026-05-05 18:55 | 53.06600 | -2.14525 | 8297 ft | 284 kts | 158° |
| 2026-05-05 18:55 | 53.04748 | -2.13258 | 9134 ft | 291 kts | 158° |
| 2026-05-05 18:55 | 53.02857 | -2.11964 | 9992 ft | 297 kts | 159° |
| 2026-05-05 18:56 | 53.00903 | -2.10627 | 10577 ft | 312 kts | 159° |
| 2026-05-05 18:56 | 52.98845 | -2.09214 | 11051 ft | 329 kts | 159° |
| 2026-05-05 18:56 | 52.96677 | -2.07724 | 11483 ft | 346 kts | 158° |
| 2026-05-05 18:56 | 52.94405 | -2.06161 | 12010 ft | 358 kts | 159° |
| 2026-05-05 18:57 | 52.92088 | -2.04563 | 12768 ft | 363 kts | 159° |
| 2026-05-05 18:57 | 52.89742 | -2.02947 | 13553 ft | 367 kts | 159° |
| 2026-05-05 18:57 | 52.87374 | -2.01315 | 14269 ft | 371 kts | 159° |
| 2026-05-05 18:57 | 52.84982 | -1.99672 | 14964 ft | 374 kts | 159° |
| 2026-05-05 18:58 | 52.82564 | -1.98018 | 15624 ft | 378 kts | 159° |
| 2026-05-05 18:58 | 52.80162 | -1.96381 | 16337 ft | 380 kts | 159° |
| 2026-05-05 18:58 | 52.77681 | -1.94692 | 17042 ft | 382 kts | 159° |
| 2026-05-05 18:58 | 52.75208 | -1.93013 | 17721 ft | 385 kts | 159° |
| 2026-05-05 18:59 | 52.72720 | -1.91330 | 18388 ft | 388 kts | 159° |
| 2026-05-05 18:59 | 52.70212 | -1.89630 | 18832 ft | 390 kts | 159° |
| 2026-05-05 18:59 | 52.67701 | -1.87927 | 18965 ft | 392 kts | 159° |
| 2026-05-05 18:59 | 52.65125 | -1.86180 | 19006 ft | 406 kts | 159° |
| 2026-05-05 19:00 | 52.62507 | -1.84405 | 19000 ft | 408 kts | 159° |
| 2026-05-05 19:00 | 52.59883 | -1.82628 | 18998 ft | 407 kts | 159° |
| 2026-05-05 19:00 | 52.57264 | -1.80858 | 19003 ft | 407 kts | 159° |
| 2026-05-05 19:00 | 52.54641 | -1.79090 | 19003 ft | 407 kts | 159° |
| 2026-05-05 19:01 | 52.52019 | -1.77327 | 19005 ft | 407 kts | 159° |
| 2026-05-05 19:01 | 52.49399 | -1.75570 | 19006 ft | 407 kts | 159° |
| 2026-05-05 19:01 | 52.46776 | -1.73812 | 19001 ft | 407 kts | 159° |
| 2026-05-05 19:01 | 52.44156 | -1.72056 | 18997 ft | 407 kts | 159° |
| 2026-05-05 19:02 | 52.41535 | -1.70298 | 18998 ft | 407 kts | 159° |
| 2026-05-05 19:02 | 52.38916 | -1.68540 | 19002 ft | 407 kts | 159° |
| 2026-05-05 19:02 | 52.36344 | -1.66600 | 19003 ft | 408 kts | 152° |